createdAt,value
2023-02-08T00:01:51.872Z,45.60
2023-02-08T00:04:20.336Z,57.13
2023-02-08T00:06:48.667Z,58.90
2023-02-08T00:09:16.932Z,63.40
2023-02-08T00:11:46.652Z,70.25
2023-02-08T00:14:14.885Z,72.68
2023-02-08T00:16:43.196Z,80.72
2023-02-08T00:19:11.337Z,84.72
2023-02-08T00:21:39.551Z,65.88
2023-02-08T00:24:09.035Z,75.20
2023-02-08T00:26:37.571Z,59.35
2023-02-08T00:29:07.262Z,52.40
2023-02-08T00:31:38.798Z,57.45
2023-02-08T00:34:07.122Z,56.30
2023-02-08T00:36:35.607Z,47.72
2023-02-08T00:39:04.649Z,50.65
2023-02-08T00:41:33.374Z,40.88
2023-02-08T00:44:01.354Z,46.97
2023-02-08T00:46:30.852Z,50.53
2023-02-08T00:48:58.917Z,45.22
2023-02-08T00:51:27.381Z,42.22
2023-02-08T00:53:55.443Z,36.92
2023-02-08T00:56:23.573Z,47.40
2023-02-08T00:58:51.632Z,43.20
2023-02-08T01:01:19.775Z,44.90
2023-02-08T01:03:49.676Z,38.97
2023-02-08T01:06:18.934Z,44.92
2023-02-08T01:08:47.396Z,42.50
2023-02-08T01:11:21.690Z,47.10
2023-02-08T01:13:50.278Z,45.88
2023-02-08T01:16:22.713Z,37.47
2023-02-08T01:18:54.682Z,46.40
2023-02-08T01:21:28.393Z,44.67
2023-02-08T01:23:57.022Z,42.55
2023-02-08T01:26:26.431Z,53.40
2023-02-08T01:28:55.876Z,70.20
2023-02-08T01:31:26.414Z,59.95
2023-02-08T01:33:56.419Z,49.72
2023-02-08T01:36:25.089Z,51.05
2023-02-08T01:38:53.510Z,49.35
2023-02-08T01:41:23.826Z,50.92
2023-02-08T01:44:07.416Z,48.72
2023-02-08T01:46:37.170Z,44.22
2023-02-08T01:49:11.836Z,42.83
2023-02-08T01:51:44.395Z,47.70
2023-02-08T01:54:15.798Z,41.83
2023-02-08T01:56:46.001Z,41.00
2023-02-08T01:59:19.042Z,36.08
2023-02-08T02:01:48.330Z,35.20
2023-02-08T02:04:18.113Z,35.50
2023-02-08T02:06:54.149Z,40.45
2023-02-08T02:09:26.125Z,32.75
2023-02-08T02:11:58.715Z,38.47
2023-02-08T02:14:28.121Z,38.70
2023-02-08T02:16:57.345Z,35.92
2023-02-08T02:19:34.741Z,42.65
2023-02-08T02:22:14.374Z,34.67
2023-02-08T02:25:23.460Z,40.22
2023-02-08T02:28:15.798Z,37.30
2023-02-08T02:31:22.818Z,30.15
2023-02-08T02:34:03.797Z,32.15
2023-02-08T02:36:39.256Z,31.55
2023-02-08T02:39:22.454Z,34.47
2023-02-08T02:42:17.806Z,31.30
2023-02-08T02:45:01.602Z,34.33
2023-02-08T02:47:37.485Z,37.03
2023-02-08T02:50:16.509Z,35.53
2023-02-08T02:52:50.073Z,35.75
2023-02-08T02:55:22.162Z,36.67
2023-02-08T02:57:53.638Z,29.65
2023-02-08T03:00:25.834Z,31.20
2023-02-08T03:02:55.595Z,34.20
2023-02-08T03:05:25.801Z,30.45
2023-02-08T03:08:16.444Z,33.45
2023-02-08T03:11:05.838Z,30.40
2023-02-08T03:13:46.847Z,30.23
2023-02-08T03:16:23.080Z,32.67
2023-02-08T03:19:05.520Z,28.98
2023-02-08T03:21:41.605Z,30.92
2023-02-08T03:24:22.976Z,35.75
2023-02-08T03:26:56.279Z,32.15
2023-02-08T03:29:33.331Z,31.02
2023-02-08T03:32:05.174Z,28.13
2023-02-08T03:34:40.958Z,31.23
2023-02-08T03:37:16.415Z,32.55
2023-02-08T03:39:45.670Z,33.85
2023-02-08T03:42:22.341Z,33.65
2023-02-08T03:44:56.101Z,31.50
2023-02-08T03:47:27.166Z,31.38
2023-02-08T03:49:59.628Z,31.15
2023-02-08T03:52:32.535Z,33.88
2023-02-08T03:55:05.655Z,36.58
2023-02-08T03:57:37.781Z,33.42
2023-02-08T04:00:09.382Z,37.38
2023-02-08T04:02:42.288Z,28.40
2023-02-08T04:05:10.718Z,29.65
2023-02-08T04:07:40.223Z,30.65
2023-02-08T04:10:09.041Z,27.85
2023-02-08T04:12:37.651Z,34.60
2023-02-08T04:15:06.519Z,31.48
2023-02-08T04:17:34.639Z,28.73
2023-02-08T04:20:02.980Z,28.45
2023-02-08T04:22:32.111Z,33.88
2023-02-08T04:25:01.530Z,34.20
2023-02-08T04:27:29.952Z,30.25
2023-02-08T04:30:01.172Z,33.95
2023-02-08T04:32:29.517Z,31.45
2023-02-08T04:34:57.981Z,27.83
2023-02-08T04:37:26.485Z,31.23
2023-02-08T04:39:54.988Z,28.85
2023-02-08T04:42:24.757Z,27.42
2023-02-08T04:44:53.173Z,36.83
2023-02-08T04:47:21.966Z,31.35
2023-02-08T04:49:50.334Z,31.50
2023-02-08T04:52:18.674Z,30.85
2023-02-08T04:54:47.431Z,28.05
2023-02-08T04:57:15.993Z,30.13
2023-02-08T04:59:45.442Z,32.78
2023-02-08T05:02:13.767Z,28.70
2023-02-08T05:04:45.559Z,24.13
2023-02-08T05:07:13.916Z,26.73
2023-02-08T05:09:44.152Z,26.63
2023-02-08T05:12:12.468Z,28.20
2023-02-08T05:14:40.972Z,25.95
2023-02-08T05:17:10.736Z,35.45
2023-02-08T05:19:39.197Z,33.63
2023-02-08T05:22:07.512Z,30.17
2023-02-08T05:24:35.899Z,26.02
2023-02-08T05:27:04.440Z,27.27
2023-02-08T05:29:32.960Z,29.67
2023-02-08T05:32:01.383Z,35.20
2023-02-08T05:34:30.847Z,31.75
2023-02-08T05:36:59.243Z,31.67
2023-02-08T05:39:34.204Z,30.95
2023-02-08T05:42:02.609Z,33.50
2023-02-08T05:44:31.041Z,41.80
2023-02-08T05:46:59.383Z,41.78
2023-02-08T05:49:27.755Z,33.03
2023-02-08T05:51:57.607Z,43.15
2023-02-08T05:54:25.943Z,33.97
2023-02-08T05:56:54.261Z,32.25
2023-02-08T05:59:22.539Z,30.88
2023-02-08T06:01:50.898Z,36.55
2023-02-08T06:04:19.522Z,35.08
2023-02-08T06:06:47.858Z,33.17
2023-02-08T06:09:17.378Z,36.30
2023-02-08T06:11:45.856Z,37.15
2023-02-08T06:14:14.292Z,29.33
2023-02-08T06:16:42.750Z,34.63
2023-02-08T06:19:11.176Z,32.47
2023-02-08T06:21:39.721Z,41.30
2023-02-08T06:24:08.197Z,37.17
2023-02-08T06:26:40.088Z,33.00
2023-02-08T06:29:08.580Z,40.95
2023-02-08T06:31:37.423Z,36.15
2023-02-08T06:34:06.013Z,34.72
2023-02-08T06:36:34.545Z,27.83
2023-02-08T06:39:02.902Z,30.45
2023-02-08T06:41:31.180Z,36.65
2023-02-08T06:44:03.889Z,35.33
2023-02-08T06:49:00.963Z,30.42
2023-02-08T06:51:29.503Z,34.92
2023-02-08T06:53:57.853Z,43.90
2023-02-08T06:56:26.275Z,34.65
2023-02-08T06:58:54.623Z,32.88
2023-02-08T07:01:24.551Z,42.15
2023-02-08T07:03:53.414Z,103.20
2023-02-08T07:06:25.466Z,65.68
2023-02-08T07:08:54.233Z,46.25
2023-02-08T07:11:23.961Z,38.03
2023-02-08T07:13:54.582Z,36.13
2023-02-08T07:16:25.990Z,44.05
2023-02-08T07:18:54.649Z,34.15
2023-02-08T07:21:23.706Z,39.70
2023-02-08T07:23:52.330Z,35.28
2023-02-08T07:26:24.114Z,37.88
2023-02-08T07:28:52.912Z,41.50
2023-02-08T07:31:21.693Z,36.80
2023-02-08T07:33:51.888Z,50.08
2023-02-08T07:36:20.638Z,94.85
2023-02-08T07:38:49.488Z,78.25
2023-02-08T07:41:20.388Z,71.82
2023-02-08T07:43:48.895Z,52.85
2023-02-08T07:46:22.549Z,52.28
2023-02-08T07:48:54.170Z,41.38
2023-02-08T07:51:32.215Z,55.55
2023-02-08T07:54:00.615Z,42.13
2023-02-08T07:56:29.394Z,40.10
2023-02-08T07:59:00.413Z,34.22
2023-02-08T08:01:30.031Z,39.53
2023-02-08T08:03:59.636Z,39.78
2023-02-08T08:06:28.254Z,38.42
2023-02-08T08:08:56.636Z,36.80
2023-02-08T08:11:25.247Z,36.72
2023-02-08T08:13:53.742Z,37.60
2023-02-08T08:16:22.483Z,29.63
2023-02-08T08:18:54.159Z,31.45
2023-02-08T08:21:23.877Z,29.33
2023-02-08T08:23:53.834Z,31.05
2023-02-08T08:26:26.239Z,35.13
2023-02-08T08:28:55.990Z,32.90
2023-02-08T08:31:25.753Z,41.47
2023-02-08T08:33:54.247Z,35.80
2023-02-08T08:36:23.777Z,39.75
2023-02-08T08:38:53.443Z,34.85
2023-02-08T08:41:22.472Z,28.00
2023-02-08T08:43:51.067Z,29.45
2023-02-08T08:46:19.560Z,30.92
2023-02-08T08:48:48.308Z,41.58
2023-02-08T08:51:16.751Z,36.78
2023-02-08T08:53:46.484Z,34.95
2023-02-08T08:56:18.010Z,33.00
2023-02-08T08:58:46.616Z,38.95
2023-02-08T09:01:15.821Z,24.92
2023-02-08T09:03:44.345Z,30.70
2023-02-08T09:06:16.195Z,28.80
2023-02-08T09:08:45.940Z,29.92
2023-02-08T09:11:22.533Z,28.35
2023-02-08T09:13:53.351Z,32.17
2023-02-08T09:16:23.849Z,38.35
2023-02-08T09:18:52.580Z,41.65
2023-02-08T09:21:22.603Z,35.22
2023-02-08T09:23:52.519Z,33.70
2023-02-08T09:26:21.596Z,40.78
2023-02-08T09:28:50.019Z,33.88
2023-02-08T09:31:22.156Z,58.15
2023-02-08T09:33:50.714Z,35.55
2023-02-08T09:36:19.503Z,27.35
2023-02-08T09:38:48.048Z,28.10
2023-02-08T09:41:33.462Z,25.27
2023-02-08T09:44:15.920Z,25.13
2023-02-08T09:46:51.878Z,32.10
2023-02-08T09:49:23.376Z,30.75
2023-02-08T09:51:55.037Z,32.40
2023-02-08T09:54:29.070Z,26.35
2023-02-08T09:57:00.276Z,24.17
2023-02-08T09:59:31.152Z,28.35
2023-02-08T10:02:03.824Z,34.22
2023-02-08T10:04:42.473Z,29.65
2023-02-08T10:07:12.465Z,30.98
2023-02-08T10:09:40.905Z,26.55
2023-02-08T10:12:20.835Z,27.63
2023-02-08T10:14:58.865Z,26.23
2023-02-08T10:17:43.336Z,25.90
2023-02-08T10:20:26.354Z,26.67
2023-02-08T10:23:05.190Z,27.40
2023-02-08T10:25:48.219Z,24.30
2023-02-08T10:28:54.906Z,22.55
2023-02-08T10:31:34.363Z,25.23
2023-02-08T10:34:08.145Z,22.08
2023-02-08T10:36:42.204Z,21.30
2023-02-08T10:39:18.201Z,23.80
2023-02-08T10:41:47.446Z,27.42
2023-02-08T10:44:29.892Z,23.02
2023-02-08T10:47:10.150Z,23.13
2023-02-08T10:49:43.824Z,21.52
2023-02-08T10:52:15.487Z,21.88
2023-02-08T10:54:50.682Z,22.65
2023-02-08T10:57:22.764Z,23.88
2023-02-08T10:59:55.980Z,20.07
2023-02-08T11:02:32.677Z,27.20
2023-02-08T11:05:03.528Z,21.27
2023-02-08T11:07:34.703Z,20.45
2023-02-08T11:10:24.670Z,20.90
2023-02-08T11:12:58.986Z,21.45
2023-02-08T11:15:40.489Z,23.20
2023-02-08T11:18:20.192Z,19.90
2023-02-08T11:20:55.160Z,19.65
2023-02-08T11:23:30.000Z,21.05
2023-02-08T11:26:20.542Z,19.23
2023-02-08T11:29:08.394Z,19.58
2023-02-08T11:32:32.153Z,14.90
2023-02-08T11:35:27.148Z,23.67
2023-02-08T11:38:01.550Z,20.27
2023-02-08T11:40:36.334Z,18.05
2023-02-08T11:43:05.328Z,22.92
2023-02-08T11:45:38.278Z,25.48
2023-02-08T11:50:46.479Z,22.50
2023-02-08T11:53:27.802Z,21.17
2023-02-08T11:56:17.756Z,21.60
2023-02-08T11:59:21.575Z,23.98
2023-02-08T12:04:19.512Z,19.50
2023-02-08T12:07:18.621Z,17.63
2023-02-08T12:10:23.071Z,22.17
2023-02-08T12:13:12.301Z,19.08
2023-02-08T12:15:58.748Z,18.92
2023-02-08T12:18:52.593Z,21.75
2023-02-08T12:23:57.858Z,22.10
2023-02-08T12:26:45.342Z,20.98
2023-02-08T12:29:45.648Z,18.88
2023-02-08T12:32:51.324Z,17.15
2023-02-08T12:36:01.795Z,17.60
2023-02-08T12:39:18.627Z,25.40
2023-02-08T12:42:18.742Z,21.67
2023-02-08T12:45:07.040Z,18.73
2023-02-08T12:48:03.611Z,20.80
2023-02-08T12:50:43.655Z,17.77
2023-02-08T12:53:25.825Z,19.73
2023-02-08T12:56:04.047Z,20.05
2023-02-08T12:58:36.778Z,19.65
2023-02-08T13:01:12.113Z,19.10
2023-02-08T13:03:48.586Z,19.20
2023-02-08T13:06:20.156Z,17.48
2023-02-08T13:08:54.215Z,19.98
2023-02-08T13:11:33.660Z,20.80
2023-02-08T13:14:06.542Z,22.83
2023-02-08T13:16:40.741Z,18.92
2023-02-08T13:19:25.281Z,18.75
2023-02-08T13:21:55.310Z,21.25
2023-02-08T13:24:31.077Z,18.90
2023-02-08T13:27:00.818Z,21.00
2023-02-08T13:29:30.918Z,19.83
2023-02-08T13:32:04.046Z,20.20
2023-02-08T13:37:16.515Z,19.23
2023-02-08T13:39:52.710Z,22.35
2023-02-08T13:42:30.637Z,21.90
2023-02-08T13:45:03.236Z,17.40
2023-02-08T13:47:34.098Z,18.88
2023-02-08T13:50:10.335Z,20.05
2023-02-08T13:52:52.659Z,20.90
2023-02-08T13:55:56.975Z,19.50
2023-02-08T13:58:58.399Z,20.42
2023-02-08T14:01:28.913Z,20.33
2023-02-08T14:04:35.138Z,20.90
2023-02-08T14:07:19.025Z,18.38
2023-02-08T14:10:03.537Z,20.75
2023-02-08T14:12:42.826Z,17.08
2023-02-08T14:15:31.651Z,17.73
2023-02-08T14:18:03.215Z,20.05
2023-02-08T14:20:40.434Z,20.67
2023-02-08T14:23:25.251Z,22.40
2023-02-08T14:25:56.312Z,19.52
2023-02-08T14:28:32.032Z,20.67
2023-02-08T14:31:15.240Z,16.88
2023-02-08T14:36:31.148Z,21.92
2023-02-08T14:39:36.218Z,14.50
2023-02-08T14:42:07.325Z,16.63
2023-02-08T14:45:02.796Z,18.58
2023-02-08T14:47:57.463Z,20.10
2023-02-08T14:50:37.099Z,18.55
2023-02-08T14:53:16.920Z,16.45
2023-02-08T14:55:54.649Z,17.73
2023-02-08T14:58:35.460Z,17.88
2023-02-08T15:01:09.260Z,17.30
2023-02-08T15:03:38.231Z,18.38
2023-02-08T15:06:49.785Z,19.35
2023-02-08T15:09:22.874Z,19.85
2023-02-08T15:12:02.448Z,18.27
2023-02-08T15:14:32.391Z,18.85
2023-02-08T15:17:01.013Z,21.00
2023-02-08T15:19:34.096Z,17.58
2023-02-08T15:25:01.809Z,14.77
2023-02-08T15:27:35.336Z,15.98
2023-02-08T15:30:31.052Z,20.13
2023-02-08T15:32:59.560Z,16.73
2023-02-08T15:35:28.363Z,15.38
2023-02-08T15:37:58.303Z,18.70
2023-02-08T15:40:30.274Z,19.05
2023-02-08T15:43:05.845Z,19.33
2023-02-08T15:45:35.919Z,19.42
2023-02-08T15:48:14.064Z,16.58
2023-02-08T15:50:46.628Z,19.27
2023-02-08T15:53:29.535Z,22.63
2023-02-08T15:56:09.340Z,20.17
2023-02-08T15:58:49.854Z,24.88
2023-02-08T16:01:21.354Z,24.33
2023-02-08T16:03:50.480Z,20.67
2023-02-08T16:06:24.809Z,25.55
2023-02-08T16:08:56.182Z,23.48
2023-02-08T16:11:31.393Z,38.38
2023-02-08T16:14:01.651Z,22.92
2023-02-08T16:16:40.137Z,37.17
2023-02-08T16:19:21.613Z,29.70
2023-02-08T16:21:50.189Z,19.73
2023-02-08T16:24:27.117Z,24.27
2023-02-08T16:27:05.666Z,27.13
2023-02-08T16:29:42.518Z,25.98
2023-02-08T16:32:27.246Z,27.98
2023-02-08T16:34:58.733Z,26.88
2023-02-08T16:37:30.721Z,23.23
2023-02-08T16:40:02.858Z,22.02
2023-02-08T16:42:37.142Z,20.00
2023-02-08T16:45:28.245Z,22.35
2023-02-08T16:48:06.938Z,23.42
2023-02-08T16:50:42.014Z,24.85
2023-02-08T16:53:17.343Z,23.23
2023-02-08T16:55:46.430Z,23.85
2023-02-08T16:58:16.348Z,21.17
2023-02-08T17:00:55.656Z,21.25
2023-02-08T17:03:24.163Z,20.40
2023-02-08T17:05:52.752Z,26.08
2023-02-08T17:08:23.476Z,27.45
2023-02-08T17:10:58.768Z,30.08
2023-02-08T17:13:28.603Z,30.88
2023-02-08T17:15:57.344Z,29.63
2023-02-08T17:18:25.776Z,21.50
2023-02-08T17:20:59.440Z,24.33
2023-02-08T17:23:27.926Z,24.08
2023-02-08T17:25:56.572Z,25.40
2023-02-08T17:28:25.325Z,23.88
2023-02-08T17:30:55.621Z,27.85
2023-02-08T17:33:24.668Z,22.17
2023-02-08T17:35:54.061Z,28.48
2023-02-08T17:38:25.628Z,21.20
2023-02-08T17:40:54.154Z,24.42
2023-02-08T17:43:23.223Z,26.00
2023-02-08T17:45:51.623Z,27.48
2023-02-08T17:48:21.118Z,22.02
2023-02-08T17:50:51.010Z,24.00
2023-02-08T17:53:20.061Z,24.13
2023-02-08T17:55:48.647Z,24.50
2023-02-08T17:58:17.675Z,21.30
2023-02-08T18:00:46.488Z,22.90
2023-02-08T18:03:17.225Z,19.60
2023-02-08T18:05:46.730Z,26.15
2023-02-08T18:08:15.313Z,24.55
2023-02-08T18:10:43.945Z,21.33
2023-02-08T18:13:17.146Z,26.27
2023-02-08T18:15:45.990Z,28.90
2023-02-08T18:18:15.497Z,25.48
2023-02-08T18:20:48.035Z,26.08
2023-02-08T18:23:16.586Z,27.92
2023-02-08T18:25:45.284Z,29.48
2023-02-08T18:28:15.196Z,27.83
2023-02-08T18:30:44.006Z,25.92
2023-02-08T18:33:13.701Z,31.67
2023-02-08T18:35:42.365Z,29.63
2023-02-08T18:38:11.953Z,31.15
2023-02-08T18:40:41.709Z,37.92
2023-02-08T18:43:10.146Z,32.40
2023-02-08T18:45:38.415Z,38.22
2023-02-08T18:48:07.363Z,43.55
2023-02-08T18:50:35.725Z,43.10
2023-02-08T18:53:04.108Z,42.00
2023-02-08T18:55:33.862Z,40.70
2023-02-08T18:58:02.184Z,37.83
2023-02-08T19:00:30.594Z,37.20
2023-02-08T19:02:59.025Z,32.00
2023-02-08T19:05:27.479Z,32.60
2023-02-08T19:07:55.741Z,31.20
2023-02-08T19:10:24.107Z,29.88
2023-02-08T19:12:53.533Z,27.80
2023-02-08T19:15:24.921Z,33.90
2023-02-08T19:17:54.389Z,29.02
2023-02-08T19:20:23.008Z,32.72
2023-02-08T19:22:51.373Z,28.85
2023-02-08T19:25:19.543Z,31.52
2023-02-08T19:27:51.060Z,29.02
2023-02-08T19:30:22.284Z,32.83
2023-02-08T19:32:50.856Z,28.92
2023-02-08T19:35:19.765Z,30.90
2023-02-08T19:37:50.317Z,35.03
2023-02-08T19:40:19.471Z,32.05
2023-02-08T19:42:48.940Z,34.47
2023-02-08T19:45:17.338Z,28.67
2023-02-08T19:47:51.595Z,29.52
2023-02-08T19:50:20.356Z,34.28
2023-02-08T19:52:49.087Z,33.47
2023-02-08T19:55:17.672Z,28.20
2023-02-08T19:57:46.257Z,28.42
2023-02-08T20:00:23.478Z,29.67
2023-02-08T20:02:53.733Z,25.30
2023-02-08T20:05:22.390Z,29.73
2023-02-08T20:07:50.759Z,27.83
2023-02-08T20:10:19.073Z,28.13
2023-02-08T20:12:47.368Z,28.77
2023-02-08T20:15:15.674Z,31.83
2023-02-08T20:17:45.685Z,30.23
2023-02-08T20:20:15.311Z,31.75
2023-02-08T20:22:43.827Z,26.33
2023-02-08T20:25:12.151Z,31.98
2023-02-08T20:27:40.461Z,28.27
2023-02-08T20:30:09.185Z,32.40
2023-02-08T20:32:37.740Z,29.65
2023-02-08T20:35:06.375Z,33.80
2023-02-08T20:37:37.170Z,30.42
2023-02-08T20:40:06.261Z,33.80
2023-02-08T20:42:34.697Z,34.20
2023-02-08T20:45:02.984Z,32.95
2023-02-08T20:47:33.820Z,32.53
2023-02-08T20:50:17.869Z,29.90
2023-02-08T20:52:49.258Z,27.92
2023-02-08T20:55:17.699Z,26.50
2023-02-08T20:57:46.117Z,31.35
2023-02-08T21:00:15.600Z,24.50
2023-02-08T21:02:43.956Z,26.65
2023-02-08T21:05:12.242Z,28.98
2023-02-08T21:07:41.104Z,24.27
2023-02-08T21:10:11.009Z,24.70
2023-02-08T21:12:39.387Z,24.67
2023-02-08T21:15:08.740Z,23.63
2023-02-08T21:17:40.649Z,29.90
2023-02-08T21:20:10.025Z,26.63
2023-02-08T21:22:38.314Z,31.13
2023-02-08T21:25:06.804Z,27.42
2023-02-08T21:27:36.271Z,23.73
2023-02-08T21:30:04.809Z,23.70
2023-02-08T21:32:33.118Z,26.88
2023-02-08T21:35:01.498Z,24.65
2023-02-08T21:37:29.950Z,28.88
2023-02-08T21:39:58.359Z,32.15
2023-02-08T21:42:26.824Z,32.28
2023-02-08T21:44:58.992Z,29.10
2023-02-08T21:47:27.173Z,28.50
2023-02-08T21:50:13.050Z,26.08
2023-02-08T21:52:58.897Z,26.48
2023-02-08T21:55:27.178Z,27.83
2023-02-08T21:57:55.537Z,29.08
2023-02-08T22:00:25.011Z,29.52
2023-02-08T22:02:53.348Z,25.60
2023-02-08T22:05:39.308Z,27.27
2023-02-08T22:08:07.674Z,28.35
2023-02-08T22:10:36.095Z,26.70
2023-02-08T22:13:04.494Z,27.70
2023-02-08T22:15:35.036Z,30.17
2023-02-08T22:18:04.879Z,27.30
2023-02-08T22:20:33.032Z,31.70
2023-02-08T22:23:03.462Z,28.02
2023-02-08T22:25:31.899Z,31.02
2023-02-08T22:28:00.289Z,38.53
2023-02-08T22:30:28.714Z,34.55
2023-02-08T22:32:58.109Z,31.05
2023-02-08T22:35:26.483Z,31.25
2023-02-08T22:37:54.876Z,29.00
2023-02-08T22:40:23.054Z,29.17
2023-02-08T22:42:51.751Z,30.30
2023-02-08T22:45:22.694Z,28.90
2023-02-08T22:47:51.131Z,35.42
2023-02-08T22:50:20.706Z,35.17
2023-02-08T22:52:49.449Z,34.28
2023-02-08T22:55:18.081Z,37.20
2023-02-08T22:57:47.349Z,33.10
2023-02-08T23:00:20.480Z,33.10
2023-02-08T23:02:49.509Z,33.17
2023-02-08T23:05:17.960Z,35.08
2023-02-08T23:07:47.401Z,38.55
2023-02-08T23:10:15.806Z,39.22
2023-02-08T23:12:44.346Z,37.13
2023-02-08T23:15:13.444Z,34.35
2023-02-08T23:17:42.052Z,32.63
2023-02-08T23:20:11.556Z,34.15
2023-02-08T23:22:39.984Z,34.53
2023-02-08T23:25:10.223Z,35.50
2023-02-08T23:27:39.351Z,44.08
2023-02-08T23:30:09.993Z,39.63
2023-02-08T23:32:39.200Z,34.70
2023-02-08T23:35:09.503Z,34.47
2023-02-08T23:37:38.807Z,32.17
2023-02-08T23:40:09.871Z,33.53
2023-02-08T23:42:39.048Z,35.22
2023-02-08T23:45:10.568Z,31.60
2023-02-08T23:47:42.447Z,30.40
2023-02-08T23:50:12.955Z,34.25
2023-02-08T23:52:42.076Z,31.05
2023-02-08T23:55:13.119Z,34.33
2023-02-08T23:57:46.117Z,34.00
